sensor_id;sensor_type;location;lat;lon;timestamp;temperature;humidity
16655;DHT22;8441;51.344;7.022;2024-01-25T00:01:08;7.70;99.90
16655;DHT22;8441;51.344;7.022;2024-01-25T00:03:35;7.70;99.90
16655;DHT22;8441;51.344;7.022;2024-01-25T00:06:03;7.70;99.90
16655;DHT22;8441;51.344;7.022;2024-01-25T00:08:31;7.70;99.90
16655;DHT22;8441;51.344;7.022;2024-01-25T00:10:58;7.70;99.90
16655;DHT22;8441;51.344;7.022;2024-01-25T00:13:26;7.70;99.90
16655;DHT22;8441;51.344;7.022;2024-01-25T00:15:54;7.70;99.90
16655;DHT22;8441;51.344;7.022;2024-01-25T00:18:21;7.70;99.90
16655;DHT22;8441;51.344;7.022;2024-01-25T00:20:49;7.70;99.90
16655;DHT22;8441;51.344;7.022;2024-01-25T00:23:16;7.70;99.90
16655;DHT22;8441;51.344;7.022;2024-01-25T00:25:43;7.70;99.90
16655;DHT22;8441;51.344;7.022;2024-01-25T00:28:11;7.70;99.90
16655;DHT22;8441;51.344;7.022;2024-01-25T00:30:40;7.60;99.90
16655;DHT22;8441;51.344;7.022;2024-01-25T00:33:07;7.70;99.90
16655;DHT22;8441;51.344;7.022;2024-01-25T00:35:35;7.70;99.90
16655;DHT22;8441;51.344;7.022;2024-01-25T00:38:03;7.70;99.90
16655;DHT22;8441;51.344;7.022;2024-01-25T00:40:30;7.70;99.90
16655;DHT22;8441;51.344;7.022;2024-01-25T00:42:58;7.60;99.90
16655;DHT22;8441;51.344;7.022;2024-01-25T00:45:26;7.70;99.90
16655;DHT22;8441;51.344;7.022;2024-01-25T00:47:55;7.70;99.90
16655;DHT22;8441;51.344;7.022;2024-01-25T00:50:23;7.70;99.90
16655;DHT22;8441;51.344;7.022;2024-01-25T00:52:52;7.70;99.90
16655;DHT22;8441;51.344;7.022;2024-01-25T00:55:20;7.70;99.90
16655;DHT22;8441;51.344;7.022;2024-01-25T00:57:48;7.70;99.90
16655;DHT22;8441;51.344;7.022;2024-01-25T01:00:15;7.60;99.90
16655;DHT22;8441;51.344;7.022;2024-01-25T01:02:44;7.60;99.90
16655;DHT22;8441;51.344;7.022;2024-01-25T01:05:14;7.50;99.90
16655;DHT22;8441;51.344;7.022;2024-01-25T01:07:44;7.40;99.90
16655;DHT22;8441;51.344;7.022;2024-01-25T01:10:12;7.30;99.90
16655;DHT22;8441;51.344;7.022;2024-01-25T01:12:40;7.20;99.90
16655;DHT22;8441;51.344;7.022;2024-01-25T01:15:07;7.10;99.90
16655;DHT22;8441;51.344;7.022;2024-01-25T01:17:35;7.10;99.90
16655;DHT22;8441;51.344;7.022;2024-01-25T01:20:02;7.00;99.90
16655;DHT22;8441;51.344;7.022;2024-01-25T01:22:31;6.90;99.90
16655;DHT22;8441;51.344;7.022;2024-01-25T01:24:59;6.80;99.90
16655;DHT22;8441;51.344;7.022;2024-01-25T01:27:26;6.80;99.90
16655;DHT22;8441;51.344;7.022;2024-01-25T01:29:53;6.80;99.90
16655;DHT22;8441;51.344;7.022;2024-01-25T01:32:20;6.80;99.90
16655;DHT22;8441;51.344;7.022;2024-01-25T01:34:48;6.70;99.90
16655;DHT22;8441;51.344;7.022;2024-01-25T01:37:15;6.80;99.90
16655;DHT22;8441;51.344;7.022;2024-01-25T01:39:44;6.70;99.90
16655;DHT22;8441;51.344;7.022;2024-01-25T01:42:11;6.70;99.90
16655;DHT22;8441;51.344;7.022;2024-01-25T01:44:39;6.70;99.90
16655;DHT22;8441;51.344;7.022;2024-01-25T01:47:07;6.70;99.90
16655;DHT22;8441;51.344;7.022;2024-01-25T01:49:34;6.70;99.90
16655;DHT22;8441;51.344;7.022;2024-01-25T01:52:02;6.70;99.90
16655;DHT22;8441;51.344;7.022;2024-01-25T01:54:29;6.70;99.90
16655;DHT22;8441;51.344;7.022;2024-01-25T01:56:59;6.70;99.90
16655;DHT22;8441;51.344;7.022;2024-01-25T01:59:26;6.70;99.90
16655;DHT22;8441;51.344;7.022;2024-01-25T02:01:54;6.70;99.90
16655;DHT22;8441;51.344;7.022;2024-01-25T02:04:22;6.70;99.90
16655;DHT22;8441;51.344;7.022;2024-01-25T02:06:49;6.80;99.90
16655;DHT22;8441;51.344;7.022;2024-01-25T02:09:17;6.70;99.90
16655;DHT22;8441;51.344;7.022;2024-01-25T02:11:44;6.70;99.90
16655;DHT22;8441;51.344;7.022;2024-01-25T02:14:12;6.60;99.90
16655;DHT22;8441;51.344;7.022;2024-01-25T02:16:41;6.60;99.90
16655;DHT22;8441;51.344;7.022;2024-01-25T02:19:11;6.60;99.90
16655;DHT22;8441;51.344;7.022;2024-01-25T02:21:38;6.60;99.90
16655;DHT22;8441;51.344;7.022;2024-01-25T02:24:07;6.60;99.90
16655;DHT22;8441;51.344;7.022;2024-01-25T02:26:35;6.70;99.90
16655;DHT22;8441;51.344;7.022;2024-01-25T02:29:03;6.70;99.90
16655;DHT22;8441;51.344;7.022;2024-01-25T02:31:31;6.70;99.90
16655;DHT22;8441;51.344;7.022;2024-01-25T02:33:58;6.70;99.90
16655;DHT22;8441;51.344;7.022;2024-01-25T02:36:26;6.70;99.90
16655;DHT22;8441;51.344;7.022;2024-01-25T02:38:53;6.80;99.90
16655;DHT22;8441;51.344;7.022;2024-01-25T02:41:22;6.80;99.90
16655;DHT22;8441;51.344;7.022;2024-01-25T02:43:49;6.80;99.90
16655;DHT22;8441;51.344;7.022;2024-01-25T02:46:16;6.80;99.90
16655;DHT22;8441;51.344;7.022;2024-01-25T02:48:43;6.80;99.90
16655;DHT22;8441;51.344;7.022;2024-01-25T02:51:10;6.80;99.90
16655;DHT22;8441;51.344;7.022;2024-01-25T02:53:37;6.80;99.90
16655;DHT22;8441;51.344;7.022;2024-01-25T02:56:06;6.80;99.90
16655;DHT22;8441;51.344;7.022;2024-01-25T02:58:35;6.80;99.90
16655;DHT22;8441;51.344;7.022;2024-01-25T03:01:02;6.90;99.90
16655;DHT22;8441;51.344;7.022;2024-01-25T03:03:29;6.80;99.90
16655;DHT22;8441;51.344;7.022;2024-01-25T03:05:56;6.80;99.90
16655;DHT22;8441;51.344;7.022;2024-01-25T03:08:24;6.80;99.90
16655;DHT22;8441;51.344;7.022;2024-01-25T03:11:00;6.80;99.90
16655;DHT22;8441;51.344;7.022;2024-01-25T03:13:29;6.70;99.90
16655;DHT22;8441;51.344;7.022;2024-01-25T03:15:58;6.60;99.90
16655;DHT22;8441;51.344;7.022;2024-01-25T03:18:25;6.60;99.90
16655;DHT22;8441;51.344;7.022;2024-01-25T03:20:52;6.60;99.90
16655;DHT22;8441;51.344;7.022;2024-01-25T03:23:20;6.50;99.90
16655;DHT22;8441;51.344;7.022;2024-01-25T03:25:47;6.50;99.90
16655;DHT22;8441;51.344;7.022;2024-01-25T03:28:14;6.40;99.90
16655;DHT22;8441;51.344;7.022;2024-01-25T03:30:44;6.40;99.90
16655;DHT22;8441;51.344;7.022;2024-01-25T03:33:13;6.30;99.90
16655;DHT22;8441;51.344;7.022;2024-01-25T03:35:40;6.20;99.90
16655;DHT22;8441;51.344;7.022;2024-01-25T03:38:07;6.10;99.90
16655;DHT22;8441;51.344;7.022;2024-01-25T03:40:35;6.00;99.90
16655;DHT22;8441;51.344;7.022;2024-01-25T03:43:02;6.00;99.90
16655;DHT22;8441;51.344;7.022;2024-01-25T03:45:29;5.90;99.90
16655;DHT22;8441;51.344;7.022;2024-01-25T03:47:58;5.90;99.90
16655;DHT22;8441;51.344;7.022;2024-01-25T03:50:27;5.80;99.90
16655;DHT22;8441;51.344;7.022;2024-01-25T03:52:54;5.70;99.90
16655;DHT22;8441;51.344;7.022;2024-01-25T03:55:22;5.60;99.90
16655;DHT22;8441;51.344;7.022;2024-01-25T03:57:49;5.60;99.90
16655;DHT22;8441;51.344;7.022;2024-01-25T04:00:17;5.60;99.90
16655;DHT22;8441;51.344;7.022;2024-01-25T04:02:44;5.40;99.90
16655;DHT22;8441;51.344;7.022;2024-01-25T04:05:11;5.30;99.90
16655;DHT22;8441;51.344;7.022;2024-01-25T04:07:41;5.30;99.90
16655;DHT22;8441;51.344;7.022;2024-01-25T04:10:08;5.30;99.90
16655;DHT22;8441;51.344;7.022;2024-01-25T04:12:36;5.20;99.90
16655;DHT22;8441;51.344;7.022;2024-01-25T04:15:04;5.30;99.90
16655;DHT22;8441;51.344;7.022;2024-01-25T04:17:31;5.20;99.90
16655;DHT22;8441;51.344;7.022;2024-01-25T04:19:58;5.20;99.90
16655;DHT22;8441;51.344;7.022;2024-01-25T04:22:26;5.20;99.90
16655;DHT22;8441;51.344;7.022;2024-01-25T04:24:54;5.20;99.90
16655;DHT22;8441;51.344;7.022;2024-01-25T04:27:22;5.10;99.90
16655;DHT22;8441;51.344;7.022;2024-01-25T04:29:49;5.10;99.90
16655;DHT22;8441;51.344;7.022;2024-01-25T04:32:16;5.00;99.90
16655;DHT22;8441;51.344;7.022;2024-01-25T04:34:44;4.90;99.90
16655;DHT22;8441;51.344;7.022;2024-01-25T04:37:13;4.90;99.90
16655;DHT22;8441;51.344;7.022;2024-01-25T04:39:41;4.80;99.90
16655;DHT22;8441;51.344;7.022;2024-01-25T04:42:10;4.80;99.90
16655;DHT22;8441;51.344;7.022;2024-01-25T04:44:37;4.70;99.90
16655;DHT22;8441;51.344;7.022;2024-01-25T04:47:04;4.70;99.90
16655;DHT22;8441;51.344;7.022;2024-01-25T04:49:32;4.60;99.90
16655;DHT22;8441;51.344;7.022;2024-01-25T04:51:59;4.60;99.90
16655;DHT22;8441;51.344;7.022;2024-01-25T04:54:26;4.60;99.90
16655;DHT22;8441;51.344;7.022;2024-01-25T04:56:53;4.50;99.90
16655;DHT22;8441;51.344;7.022;2024-01-25T04:59:23;4.50;99.90
16655;DHT22;8441;51.344;7.022;2024-01-25T05:01:50;4.50;99.90
16655;DHT22;8441;51.344;7.022;2024-01-25T05:04:19;4.40;99.90
16655;DHT22;8441;51.344;7.022;2024-01-25T05:06:46;4.30;99.90
16655;DHT22;8441;51.344;7.022;2024-01-25T05:09:14;4.30;99.90
16655;DHT22;8441;51.344;7.022;2024-01-25T05:11:41;4.30;99.90
16655;DHT22;8441;51.344;7.022;2024-01-25T05:14:08;4.40;99.90
16655;DHT22;8441;51.344;7.022;2024-01-25T05:16:37;4.30;99.90
16655;DHT22;8441;51.344;7.022;2024-01-25T05:19:05;4.30;99.90
16655;DHT22;8441;51.344;7.022;2024-01-25T05:21:32;4.30;99.90
16655;DHT22;8441;51.344;7.022;2024-01-25T05:23:59;4.20;99.90
16655;DHT22;8441;51.344;7.022;2024-01-25T05:26:26;4.10;99.90
16655;DHT22;8441;51.344;7.022;2024-01-25T05:28:54;4.00;99.90
16655;DHT22;8441;51.344;7.022;2024-01-25T05:31:21;4.00;99.90
16655;DHT22;8441;51.344;7.022;2024-01-25T05:33:50;4.10;99.90
16655;DHT22;8441;51.344;7.022;2024-01-25T05:36:17;4.00;99.90
16655;DHT22;8441;51.344;7.022;2024-01-25T05:38:45;4.00;99.90
16655;DHT22;8441;51.344;7.022;2024-01-25T05:41:13;4.00;99.90
16655;DHT22;8441;51.344;7.022;2024-01-25T05:43:40;3.90;99.90
16655;DHT22;8441;51.344;7.022;2024-01-25T05:46:07;3.90;99.90
16655;DHT22;8441;51.344;7.022;2024-01-25T05:48:35;3.90;99.90
16655;DHT22;8441;51.344;7.022;2024-01-25T05:51:04;4.00;99.90
16655;DHT22;8441;51.344;7.022;2024-01-25T05:53:31;4.00;99.90
16655;DHT22;8441;51.344;7.022;2024-01-25T05:55:59;4.00;99.90
16655;DHT22;8441;51.344;7.022;2024-01-25T05:58:26;3.90;99.90
16655;DHT22;8441;51.344;7.022;2024-01-25T06:00:53;3.90;99.90
16655;DHT22;8441;51.344;7.022;2024-01-25T06:03:20;4.00;99.90
16655;DHT22;8441;51.344;7.022;2024-01-25T06:05:48;3.90;99.90
16655;DHT22;8441;51.344;7.022;2024-01-25T06:08:16;3.90;99.90
16655;DHT22;8441;51.344;7.022;2024-01-25T06:10:44;3.90;99.90
16655;DHT22;8441;51.344;7.022;2024-01-25T06:13:11;3.90;99.90
16655;DHT22;8441;51.344;7.022;2024-01-25T06:15:38;3.90;99.90
16655;DHT22;8441;51.344;7.022;2024-01-25T06:18:06;4.00;99.90
16655;DHT22;8441;51.344;7.022;2024-01-25T06:20:33;4.00;99.90
16655;DHT22;8441;51.344;7.022;2024-01-25T06:23:00;4.00;99.90
16655;DHT22;8441;51.344;7.022;2024-01-25T06:25:29;4.10;99.90
16655;DHT22;8441;51.344;7.022;2024-01-25T06:27:56;4.10;99.90
16655;DHT22;8441;51.344;7.022;2024-01-25T06:30:24;4.00;99.90
16655;DHT22;8441;51.344;7.022;2024-01-25T06:32:52;4.00;99.90
16655;DHT22;8441;51.344;7.022;2024-01-25T06:35:19;4.10;99.90
16655;DHT22;8441;51.344;7.022;2024-01-25T06:37:46;4.10;99.90
16655;DHT22;8441;51.344;7.022;2024-01-25T06:40:14;4.20;99.90
16655;DHT22;8441;51.344;7.022;2024-01-25T06:42:42;4.40;99.90
16655;DHT22;8441;51.344;7.022;2024-01-25T06:45:10;4.50;99.90
16655;DHT22;8441;51.344;7.022;2024-01-25T06:47:38;4.60;99.90
16655;DHT22;8441;51.344;7.022;2024-01-25T06:50:06;4.60;99.90
16655;DHT22;8441;51.344;7.022;2024-01-25T06:52:33;4.60;99.90
16655;DHT22;8441;51.344;7.022;2024-01-25T06:55:01;4.60;99.90
16655;DHT22;8441;51.344;7.022;2024-01-25T06:57:28;4.60;99.90
16655;DHT22;8441;51.344;7.022;2024-01-25T06:59:57;4.60;99.90
16655;DHT22;8441;51.344;7.022;2024-01-25T07:02:24;4.60;99.90
16655;DHT22;8441;51.344;7.022;2024-01-25T07:04:51;4.70;99.90
16655;DHT22;8441;51.344;7.022;2024-01-25T07:07:21;4.70;99.90
16655;DHT22;8441;51.344;7.022;2024-01-25T07:09:48;4.70;99.90
16655;DHT22;8441;51.344;7.022;2024-01-25T07:12:15;4.70;99.90
16655;DHT22;8441;51.344;7.022;2024-01-25T07:14:42;4.70;99.90
16655;DHT22;8441;51.344;7.022;2024-01-25T07:17:11;4.60;99.90
16655;DHT22;8441;51.344;7.022;2024-01-25T07:19:38;4.60;99.90
16655;DHT22;8441;51.344;7.022;2024-01-25T07:22:05;4.60;99.90
16655;DHT22;8441;51.344;7.022;2024-01-25T07:24:33;4.60;99.90
16655;DHT22;8441;51.344;7.022;2024-01-25T07:27:01;4.50;99.90
16655;DHT22;8441;51.344;7.022;2024-01-25T07:29:28;4.50;99.90
16655;DHT22;8441;51.344;7.022;2024-01-25T07:31:55;4.50;99.90
16655;DHT22;8441;51.344;7.022;2024-01-25T07:34:24;4.50;99.90
16655;DHT22;8441;51.344;7.022;2024-01-25T07:36:51;4.60;99.90
16655;DHT22;8441;51.344;7.022;2024-01-25T07:39:18;4.60;99.90
16655;DHT22;8441;51.344;7.022;2024-01-25T07:41:45;4.60;99.90
16655;DHT22;8441;51.344;7.022;2024-01-25T07:44:13;4.60;99.90
16655;DHT22;8441;51.344;7.022;2024-01-25T07:46:40;4.60;99.90
16655;DHT22;8441;51.344;7.022;2024-01-25T07:49:08;4.60;99.90
16655;DHT22;8441;51.344;7.022;2024-01-25T07:51:36;4.60;99.90
16655;DHT22;8441;51.344;7.022;2024-01-25T07:54:04;4.70;99.90
16655;DHT22;8441;51.344;7.022;2024-01-25T07:56:32;4.60;99.90
16655;DHT22;8441;51.344;7.022;2024-01-25T07:59:00;4.70;99.90
16655;DHT22;8441;51.344;7.022;2024-01-25T08:01:27;4.70;99.90
16655;DHT22;8441;51.344;7.022;2024-01-25T08:03:54;4.70;99.90
16655;DHT22;8441;51.344;7.022;2024-01-25T08:06:22;4.80;99.90
16655;DHT22;8441;51.344;7.022;2024-01-25T08:08:50;4.80;99.90
16655;DHT22;8441;51.344;7.022;2024-01-25T08:11:18;4.90;99.90
16655;DHT22;8441;51.344;7.022;2024-01-25T08:13:46;5.00;99.90
16655;DHT22;8441;51.344;7.022;2024-01-25T08:16:13;5.10;99.90
16655;DHT22;8441;51.344;7.022;2024-01-25T08:18:44;5.10;99.90
16655;DHT22;8441;51.344;7.022;2024-01-25T08:21:12;5.20;99.90
16655;DHT22;8441;51.344;7.022;2024-01-25T08:23:40;5.20;99.90
16655;DHT22;8441;51.344;7.022;2024-01-25T08:26:09;5.40;99.90
16655;DHT22;8441;51.344;7.022;2024-01-25T08:28:39;5.40;99.90
16655;DHT22;8441;51.344;7.022;2024-01-25T08:31:07;5.40;99.90
16655;DHT22;8441;51.344;7.022;2024-01-25T08:33:34;5.50;99.90
16655;DHT22;8441;51.344;7.022;2024-01-25T08:36:02;5.50;99.90
16655;DHT22;8441;51.344;7.022;2024-01-25T08:38:29;5.50;99.90
16655;DHT22;8441;51.344;7.022;2024-01-25T08:40:56;5.60;99.90
16655;DHT22;8441;51.344;7.022;2024-01-25T08:43:25;5.70;99.90
16655;DHT22;8441;51.344;7.022;2024-01-25T08:45:52;5.70;99.90
16655;DHT22;8441;51.344;7.022;2024-01-25T08:48:19;5.80;99.90
16655;DHT22;8441;51.344;7.022;2024-01-25T08:50:47;5.80;99.90
16655;DHT22;8441;51.344;7.022;2024-01-25T08:53:18;5.80;99.90
16655;DHT22;8441;51.344;7.022;2024-01-25T08:55:47;5.80;99.90
16655;DHT22;8441;51.344;7.022;2024-01-25T08:58:15;5.90;99.90
16655;DHT22;8441;51.344;7.022;2024-01-25T09:00:43;5.90;99.90
16655;DHT22;8441;51.344;7.022;2024-01-25T09:03:11;5.80;99.90
16655;DHT22;8441;51.344;7.022;2024-01-25T09:05:38;5.80;99.90
16655;DHT22;8441;51.344;7.022;2024-01-25T09:08:11;5.90;99.90
16655;DHT22;8441;51.344;7.022;2024-01-25T09:10:40;5.90;99.90
16655;DHT22;8441;51.344;7.022;2024-01-25T09:13:08;5.90;99.90
16655;DHT22;8441;51.344;7.022;2024-01-25T09:15:35;6.00;99.90
16655;DHT22;8441;51.344;7.022;2024-01-25T09:18:04;6.10;99.90
16655;DHT22;8441;51.344;7.022;2024-01-25T09:20:31;6.10;99.90
16655;DHT22;8441;51.344;7.022;2024-01-25T09:22:59;6.10;99.90
16655;DHT22;8441;51.344;7.022;2024-01-25T09:25:26;6.10;99.90
16655;DHT22;8441;51.344;7.022;2024-01-25T09:27:53;6.20;99.90
16655;DHT22;8441;51.344;7.022;2024-01-25T09:30:22;6.20;99.90
16655;DHT22;8441;51.344;7.022;2024-01-25T09:32:50;6.30;99.90
16655;DHT22;8441;51.344;7.022;2024-01-25T09:35:18;6.30;99.90
16655;DHT22;8441;51.344;7.022;2024-01-25T09:37:46;6.40;99.90
16655;DHT22;8441;51.344;7.022;2024-01-25T09:40:14;6.40;99.90
16655;DHT22;8441;51.344;7.022;2024-01-25T09:42:41;6.50;99.90
16655;DHT22;8441;51.344;7.022;2024-01-25T09:45:11;6.50;99.90
16655;DHT22;8441;51.344;7.022;2024-01-25T09:47:44;6.60;99.90
16655;DHT22;8441;51.344;7.022;2024-01-25T09:50:12;6.60;99.90
16655;DHT22;8441;51.344;7.022;2024-01-25T09:52:43;6.70;99.90
16655;DHT22;8441;51.344;7.022;2024-01-25T09:55:12;6.80;99.90
16655;DHT22;8441;51.344;7.022;2024-01-25T09:57:44;6.90;99.90
16655;DHT22;8441;51.344;7.022;2024-01-25T10:00:13;7.00;99.90
16655;DHT22;8441;51.344;7.022;2024-01-25T10:02:41;7.10;99.90
16655;DHT22;8441;51.344;7.022;2024-01-25T10:05:08;7.20;99.90
16655;DHT22;8441;51.344;7.022;2024-01-25T10:07:36;7.30;99.90
16655;DHT22;8441;51.344;7.022;2024-01-25T10:10:06;7.40;99.90
16655;DHT22;8441;51.344;7.022;2024-01-25T10:12:35;7.40;99.90
16655;DHT22;8441;51.344;7.022;2024-01-25T10:15:03;7.50;99.90
16655;DHT22;8441;51.344;7.022;2024-01-25T10:17:31;7.50;99.90
16655;DHT22;8441;51.344;7.022;2024-01-25T10:19:59;7.50;99.90
16655;DHT22;8441;51.344;7.022;2024-01-25T10:22:26;7.60;99.90
16655;DHT22;8441;51.344;7.022;2024-01-25T10:24:53;7.60;99.90
16655;DHT22;8441;51.344;7.022;2024-01-25T10:27:22;7.50;99.90
16655;DHT22;8441;51.344;7.022;2024-01-25T10:29:50;7.60;99.90
16655;DHT22;8441;51.344;7.022;2024-01-25T10:32:17;7.60;99.90
16655;DHT22;8441;51.344;7.022;2024-01-25T10:34:45;7.60;99.90
16655;DHT22;8441;51.344;7.022;2024-01-25T10:37:14;7.80;99.90
16655;DHT22;8441;51.344;7.022;2024-01-25T10:39:43;7.70;99.90
16655;DHT22;8441;51.344;7.022;2024-01-25T10:42:11;7.80;99.90
16655;DHT22;8441;51.344;7.022;2024-01-25T10:44:40;7.70;99.90
16655;DHT22;8441;51.344;7.022;2024-01-25T10:47:08;7.70;99.90
16655;DHT22;8441;51.344;7.022;2024-01-25T10:49:36;7.70;99.90
16655;DHT22;8441;51.344;7.022;2024-01-25T10:52:05;7.70;99.90
16655;DHT22;8441;51.344;7.022;2024-01-25T10:54:33;7.80;99.90
16655;DHT22;8441;51.344;7.022;2024-01-25T10:57:01;7.70;99.90
16655;DHT22;8441;51.344;7.022;2024-01-25T10:59:28;7.80;99.90
16655;DHT22;8441;51.344;7.022;2024-01-25T11:01:58;7.90;99.90
16655;DHT22;8441;51.344;7.022;2024-01-25T11:04:27;7.90;99.90
16655;DHT22;8441;51.344;7.022;2024-01-25T11:07:06;8.00;99.90
16655;DHT22;8441;51.344;7.022;2024-01-25T11:09:34;8.00;99.90
16655;DHT22;8441;51.344;7.022;2024-01-25T11:12:01;8.00;99.90
16655;DHT22;8441;51.344;7.022;2024-01-25T11:14:37;8.00;99.90
16655;DHT22;8441;51.344;7.022;2024-01-25T11:17:18;8.00;99.90
16655;DHT22;8441;51.344;7.022;2024-01-25T11:19:48;7.90;99.90
16655;DHT22;8441;51.344;7.022;2024-01-25T11:22:15;7.80;99.90
16655;DHT22;8441;51.344;7.022;2024-01-25T11:24:43;7.90;99.90
16655;DHT22;8441;51.344;7.022;2024-01-25T11:27:11;7.90;99.90
16655;DHT22;8441;51.344;7.022;2024-01-25T11:29:39;8.00;99.90
16655;DHT22;8441;51.344;7.022;2024-01-25T11:32:07;8.00;99.90
16655;DHT22;8441;51.344;7.022;2024-01-25T11:34:36;8.00;99.90
16655;DHT22;8441;51.344;7.022;2024-01-25T11:37:03;8.00;99.90
16655;DHT22;8441;51.344;7.022;2024-01-25T11:39:32;8.20;99.90
16655;DHT22;8441;51.344;7.022;2024-01-25T11:41:59;8.20;99.90
16655;DHT22;8441;51.344;7.022;2024-01-25T11:44:27;8.20;99.90
16655;DHT22;8441;51.344;7.022;2024-01-25T11:46:55;8.30;99.90
16655;DHT22;8441;51.344;7.022;2024-01-25T11:49:23;8.40;99.90
16655;DHT22;8441;51.344;7.022;2024-01-25T11:51:52;8.40;99.90
16655;DHT22;8441;51.344;7.022;2024-01-25T11:54:20;8.60;99.90
16655;DHT22;8441;51.344;7.022;2024-01-25T11:56:47;8.60;99.90
16655;DHT22;8441;51.344;7.022;2024-01-25T11:59:16;8.70;99.90
16655;DHT22;8441;51.344;7.022;2024-01-25T12:01:44;9.00;99.90
16655;DHT22;8441;51.344;7.022;2024-01-25T12:04:11;9.10;99.90
16655;DHT22;8441;51.344;7.022;2024-01-25T12:06:38;9.10;99.90
16655;DHT22;8441;51.344;7.022;2024-01-25T12:09:08;9.10;99.90
16655;DHT22;8441;51.344;7.022;2024-01-25T12:11:36;9.00;99.90
16655;DHT22;8441;51.344;7.022;2024-01-25T12:14:03;8.80;99.90
16655;DHT22;8441;51.344;7.022;2024-01-25T12:16:32;8.70;99.90
16655;DHT22;8441;51.344;7.022;2024-01-25T12:18:59;8.60;99.90
16655;DHT22;8441;51.344;7.022;2024-01-25T12:21:26;8.50;99.90
16655;DHT22;8441;51.344;7.022;2024-01-25T12:23:53;8.50;99.90
16655;DHT22;8441;51.344;7.022;2024-01-25T12:26:22;8.40;99.90
16655;DHT22;8441;51.344;7.022;2024-01-25T12:28:50;8.40;99.90
16655;DHT22;8441;51.344;7.022;2024-01-25T12:31:17;8.40;99.90
16655;DHT22;8441;51.344;7.022;2024-01-25T12:33:44;8.30;99.90
16655;DHT22;8441;51.344;7.022;2024-01-25T12:36:12;8.30;99.90
16655;DHT22;8441;51.344;7.022;2024-01-25T12:38:39;8.30;99.90
16655;DHT22;8441;51.344;7.022;2024-01-25T12:41:07;8.30;99.90
16655;DHT22;8441;51.344;7.022;2024-01-25T12:43:35;8.30;99.90
16655;DHT22;8441;51.344;7.022;2024-01-25T12:46:03;8.30;99.90
16655;DHT22;8441;51.344;7.022;2024-01-25T12:48:30;8.30;99.90
16655;DHT22;8441;51.344;7.022;2024-01-25T12:50:57;8.30;99.90
16655;DHT22;8441;51.344;7.022;2024-01-25T12:53:25;8.40;99.90
16655;DHT22;8441;51.344;7.022;2024-01-25T12:55:52;8.40;99.90
16655;DHT22;8441;51.344;7.022;2024-01-25T12:58:20;8.50;99.90
16655;DHT22;8441;51.344;7.022;2024-01-25T13:00:48;8.50;99.90
16655;DHT22;8441;51.344;7.022;2024-01-25T13:03:15;8.50;99.90
16655;DHT22;8441;51.344;7.022;2024-01-25T13:05:42;8.50;99.90
16655;DHT22;8441;51.344;7.022;2024-01-25T13:08:09;8.50;99.90
16655;DHT22;8441;51.344;7.022;2024-01-25T13:10:36;8.40;99.90
16655;DHT22;8441;51.344;7.022;2024-01-25T13:13:04;8.30;99.90
16655;DHT22;8441;51.344;7.022;2024-01-25T13:15:31;8.30;99.90
16655;DHT22;8441;51.344;7.022;2024-01-25T13:18:00;8.20;99.90
16655;DHT22;8441;51.344;7.022;2024-01-25T13:20:27;8.20;99.90
16655;DHT22;8441;51.344;7.022;2024-01-25T13:22:55;8.10;99.90
16655;DHT22;8441;51.344;7.022;2024-01-25T13:25:22;8.10;99.90
16655;DHT22;8441;51.344;7.022;2024-01-25T13:27:49;8.00;99.90
16655;DHT22;8441;51.344;7.022;2024-01-25T13:30:17;7.90;99.90
16655;DHT22;8441;51.344;7.022;2024-01-25T13:32:44;7.90;99.90
16655;DHT22;8441;51.344;7.022;2024-01-25T13:35:13;7.90;99.90
16655;DHT22;8441;51.344;7.022;2024-01-25T13:37:41;7.80;99.90
16655;DHT22;8441;51.344;7.022;2024-01-25T13:40:09;7.80;99.90
16655;DHT22;8441;51.344;7.022;2024-01-25T13:42:36;7.80;99.90
16655;DHT22;8441;51.344;7.022;2024-01-25T13:45:05;7.80;99.90
16655;DHT22;8441;51.344;7.022;2024-01-25T13:47:33;7.80;99.90
16655;DHT22;8441;51.344;7.022;2024-01-25T13:50:00;7.90;99.90
16655;DHT22;8441;51.344;7.022;2024-01-25T13:52:29;7.90;99.90
16655;DHT22;8441;51.344;7.022;2024-01-25T13:54:56;7.90;99.90
16655;DHT22;8441;51.344;7.022;2024-01-25T13:57:24;7.90;99.90
16655;DHT22;8441;51.344;7.022;2024-01-25T13:59:51;7.80;99.90
16655;DHT22;8441;51.344;7.022;2024-01-25T14:02:18;7.90;99.90
16655;DHT22;8441;51.344;7.022;2024-01-25T14:04:45;7.90;99.90
16655;DHT22;8441;51.344;7.022;2024-01-25T14:07:15;8.00;99.90
16655;DHT22;8441;51.344;7.022;2024-01-25T14:09:44;8.00;99.90
16655;DHT22;8441;51.344;7.022;2024-01-25T14:12:11;8.10;99.90
16655;DHT22;8441;51.344;7.022;2024-01-25T14:14:38;8.10;99.90
16655;DHT22;8441;51.344;7.022;2024-01-25T14:17:06;8.20;99.90
16655;DHT22;8441;51.344;7.022;2024-01-25T14:19:33;8.20;99.90
16655;DHT22;8441;51.344;7.022;2024-01-25T14:22:00;8.30;99.90
16655;DHT22;8441;51.344;7.022;2024-01-25T14:24:27;8.30;99.90
16655;DHT22;8441;51.344;7.022;2024-01-25T14:26:56;8.30;99.90
16655;DHT22;8441;51.344;7.022;2024-01-25T14:29:23;8.30;99.90
16655;DHT22;8441;51.344;7.022;2024-01-25T14:31:50;8.30;99.90
16655;DHT22;8441;51.344;7.022;2024-01-25T14:34:18;8.40;99.90
16655;DHT22;8441;51.344;7.022;2024-01-25T14:36:45;8.40;99.90
16655;DHT22;8441;51.344;7.022;2024-01-25T14:39:12;8.30;99.90
16655;DHT22;8441;51.344;7.022;2024-01-25T14:41:42;8.30;99.90
16655;DHT22;8441;51.344;7.022;2024-01-25T14:44:11;8.30;99.90
16655;DHT22;8441;51.344;7.022;2024-01-25T14:46:38;8.20;99.90
16655;DHT22;8441;51.344;7.022;2024-01-25T14:49:06;8.20;99.90
16655;DHT22;8441;51.344;7.022;2024-01-25T14:51:33;8.10;99.90
16655;DHT22;8441;51.344;7.022;2024-01-25T14:54:00;8.00;99.90
16655;DHT22;8441;51.344;7.022;2024-01-25T14:56:27;8.00;99.90
16655;DHT22;8441;51.344;7.022;2024-01-25T14:58:55;8.00;99.90
16655;DHT22;8441;51.344;7.022;2024-01-25T15:01:24;8.00;99.90
16655;DHT22;8441;51.344;7.022;2024-01-25T15:03:54;8.00;99.90
16655;DHT22;8441;51.344;7.022;2024-01-25T15:06:22;8.00;99.90
16655;DHT22;8441;51.344;7.022;2024-01-25T15:08:49;7.90;99.90
16655;DHT22;8441;51.344;7.022;2024-01-25T15:11:16;8.00;99.90
16655;DHT22;8441;51.344;7.022;2024-01-25T15:13:44;8.00;99.90
16655;DHT22;8441;51.344;7.022;2024-01-25T15:16:11;8.00;99.90
16655;DHT22;8441;51.344;7.022;2024-01-25T15:18:40;8.00;99.90
16655;DHT22;8441;51.344;7.022;2024-01-25T15:21:07;8.00;99.90
16655;DHT22;8441;51.344;7.022;2024-01-25T15:23:34;8.10;99.90
16655;DHT22;8441;51.344;7.022;2024-01-25T15:26:03;8.10;99.90
16655;DHT22;8441;51.344;7.022;2024-01-25T15:28:31;8.10;99.90
16655;DHT22;8441;51.344;7.022;2024-01-25T15:31:00;8.10;99.90
16655;DHT22;8441;51.344;7.022;2024-01-25T15:33:27;8.10;99.90
16655;DHT22;8441;51.344;7.022;2024-01-25T15:35:56;8.10;99.90
16655;DHT22;8441;51.344;7.022;2024-01-25T15:38:24;8.10;99.90
16655;DHT22;8441;51.344;7.022;2024-01-25T15:40:51;8.10;99.90
16655;DHT22;8441;51.344;7.022;2024-01-25T15:43:18;8.10;99.90
16655;DHT22;8441;51.344;7.022;2024-01-25T15:45:45;8.10;99.90
16655;DHT22;8441;51.344;7.022;2024-01-25T15:48:12;8.10;99.90
16655;DHT22;8441;51.344;7.022;2024-01-25T15:50:40;8.10;99.90
16655;DHT22;8441;51.344;7.022;2024-01-25T15:53:08;8.10;99.90
16655;DHT22;8441;51.344;7.022;2024-01-25T15:55:37;8.10;99.90
16655;DHT22;8441;51.344;7.022;2024-01-25T15:58:04;8.10;99.90
16655;DHT22;8441;51.344;7.022;2024-01-25T16:00:31;8.10;99.90
16655;DHT22;8441;51.344;7.022;2024-01-25T16:02:58;8.00;99.90
16655;DHT22;8441;51.344;7.022;2024-01-25T16:05:26;8.00;99.90